createdAt,value
2022-08-03T00:00:50.893Z,99852.31
2022-08-03T00:03:40.719Z,99857.84
2022-08-03T00:06:31.671Z,99851.22
2022-08-03T00:09:23.591Z,99848.16
2022-08-03T00:12:12.101Z,99852.84
2022-08-03T00:15:00.565Z,99846.19
2022-08-03T00:17:52.770Z,99845.66
2022-08-03T00:20:42.979Z,99847.59
2022-08-03T00:23:50.845Z,99847.72
2022-08-03T00:26:39.898Z,99846.19
2022-08-03T00:29:28.410Z,99848.13
2022-08-03T00:32:17.194Z,99839.56
2022-08-03T00:35:09.925Z,99844.09
2022-08-03T00:38:02.310Z,99838.16
2022-08-03T00:40:50.774Z,99837.47
2022-08-03T00:43:39.217Z,99839.53
2022-08-03T00:46:27.672Z,99841.72
2022-08-03T00:49:16.142Z,99842.84
2022-08-03T00:52:18.150Z,99839.78
2022-08-03T00:55:08.929Z,99840.44
2022-08-03T00:57:57.749Z,99838.50
2022-08-03T01:00:46.320Z,99837.22
2022-08-03T01:03:34.898Z,99844.09
2022-08-03T01:06:27.157Z,99834.13
2022-08-03T01:09:21.484Z,99829.41
2022-08-03T01:12:15.992Z,99822.22
2022-08-03T01:15:10.425Z,99832.72
2022-08-03T01:18:06.585Z,99832.84
2022-08-03T01:20:57.507Z,99833.78
2022-08-03T01:24:00.606Z,99821.66
2022-08-03T01:27:05.475Z,99829.50
2022-08-03T01:30:01.558Z,99828.81
2022-08-03T01:33:00.844Z,99824.78
2022-08-03T01:35:53.182Z,99822.69
2022-08-03T01:38:44.306Z,99824.63
2022-08-03T01:41:35.656Z,99830.38
2022-08-03T01:44:29.321Z,99834.34
2022-08-03T01:47:21.193Z,99838.34
2022-08-03T01:50:10.570Z,99828.38
2022-08-03T01:52:59.428Z,99831.25
2022-08-03T01:55:51.271Z,99830.78
2022-08-03T01:58:39.756Z,99824.38
2022-08-03T02:01:28.362Z,99824.88
2022-08-03T02:04:38.180Z,99814.09
2022-08-03T02:07:27.113Z,99815.44
2022-08-03T02:10:17.027Z,99818.56
2022-08-03T02:13:23.499Z,99817.88
2022-08-03T02:16:12.046Z,99816.22
2022-08-03T02:19:01.132Z,99815.50
2022-08-03T02:21:56.767Z,99825.00
2022-08-03T02:24:50.987Z,99820.88
2022-08-03T02:27:43.773Z,99821.94
2022-08-03T02:30:37.847Z,99815.31
2022-08-03T02:33:29.597Z,99816.41
2022-08-03T02:36:18.324Z,99817.47
2022-08-03T02:39:08.631Z,99810.72
2022-08-03T02:42:02.367Z,99817.16
2022-08-03T02:44:51.951Z,99812.31
2022-08-03T02:47:53.409Z,99820.16
2022-08-03T02:50:43.122Z,99808.72
2022-08-03T02:53:31.804Z,99813.94
2022-08-03T02:56:21.641Z,99815.75
2022-08-03T02:59:10.161Z,99810.50
2022-08-03T03:01:58.677Z,99813.25
2022-08-03T03:05:52.602Z,99805.66
2022-08-03T03:07:55.980Z,99808.53
2022-08-03T03:10:44.474Z,99810.44
2022-08-03T03:13:34.278Z,99803.41
2022-08-03T03:16:22.738Z,99804.50
2022-08-03T03:19:11.267Z,99801.16
2022-08-03T03:22:00.081Z,99809.13
2022-08-03T03:24:49.577Z,99805.81
2022-08-03T03:27:38.079Z,99805.00
2022-08-03T03:30:28.468Z,99800.72
2022-08-03T03:33:16.984Z,99799.88
2022-08-03T03:36:06.401Z,99804.28
2022-08-03T03:38:54.986Z,99803.44
2022-08-03T03:41:43.468Z,99812.13
2022-08-03T03:44:32.200Z,99804.53
2022-08-03T03:47:32.665Z,99807.88
2022-08-03T03:50:21.569Z,99815.94
2022-08-03T03:53:11.159Z,99815.25
2022-08-03T03:56:02.404Z,99814.63
2022-08-03T03:58:51.502Z,99808.81
2022-08-03T04:01:40.134Z,99815.00
2022-08-03T04:04:47.546Z,99810.97
2022-08-03T04:07:57.511Z,99805.41
2022-08-03T04:11:01.825Z,99807.91
2022-08-03T04:13:52.688Z,99819.41
2022-08-03T04:16:44.067Z,99801.38
2022-08-03T04:19:37.861Z,99811.22
2022-08-03T04:22:28.233Z,99813.84
2022-08-03T04:25:19.279Z,99819.09
2022-08-03T04:28:29.827Z,99819.09
2022-08-03T04:31:16.450Z,99820.75
2022-08-03T04:34:05.065Z,99824.09
2022-08-03T04:36:58.614Z,99819.69
2022-08-03T04:39:47.079Z,99825.72
2022-08-03T04:42:35.608Z,99830.97
2022-08-03T04:45:24.121Z,99830.75
2022-08-03T04:48:12.681Z,99827.97
2022-08-03T04:51:04.322Z,99832.13
2022-08-03T04:53:54.176Z,99829.50
2022-08-03T04:56:42.745Z,99832.28
2022-08-03T04:59:31.293Z,99835.97
2022-08-03T05:02:19.784Z,99837.88
2022-08-03T05:05:09.285Z,99831.47
2022-08-03T05:08:00.749Z,99823.34
2022-08-03T05:10:53.208Z,99824.63
2022-08-03T05:13:41.739Z,99824.97
2022-08-03T05:16:30.255Z,99827.84
2022-08-03T05:19:18.768Z,99829.69
2022-08-03T05:22:07.272Z,99834.66
2022-08-03T05:24:55.751Z,99825.22
2022-08-03T05:27:45.614Z,99823.63
2022-08-03T05:30:34.695Z,99825.66
2022-08-03T05:33:23.314Z,99820.25
2022-08-03T05:36:12.601Z,99825.50
2022-08-03T05:39:02.909Z,99825.16
2022-08-03T05:41:51.575Z,99820.09
2022-08-03T05:44:42.111Z,99824.44
2022-08-03T05:47:30.655Z,99822.50
2022-08-03T05:50:19.899Z,99823.88
2022-08-03T05:53:08.398Z,99816.06
2022-08-03T05:56:02.090Z,99819.47
2022-08-03T05:59:22.447Z,99827.72
2022-08-03T06:02:11.857Z,99824.97
2022-08-03T06:05:00.347Z,99828.81
2022-08-03T06:07:49.292Z,99818.78
2022-08-03T06:10:38.436Z,99828.19
2022-08-03T06:13:26.957Z,99829.56
2022-08-03T06:16:15.434Z,99825.50
2022-08-03T06:19:05.583Z,99824.75
2022-08-03T06:21:54.107Z,99825.00
2022-08-03T06:24:53.385Z,99823.94
2022-08-03T06:27:43.040Z,99822.09
2022-08-03T06:30:31.728Z,99822.53
2022-08-03T06:33:20.296Z,99822.22
2022-08-03T06:36:10.302Z,99825.19
2022-08-03T06:39:00.820Z,99824.22
2022-08-03T06:41:49.360Z,99825.72
2022-08-03T06:44:39.709Z,99834.78
2022-08-03T06:47:28.448Z,99827.28
2022-08-03T06:50:19.002Z,99837.50
2022-08-03T06:53:15.616Z,99837.94
2022-08-03T06:56:09.886Z,99838.03
2022-08-03T06:58:58.420Z,99833.50
2022-08-03T07:01:46.973Z,99840.03
2022-08-03T07:04:35.532Z,99839.63
2022-08-03T07:07:23.995Z,99837.69
2022-08-03T07:10:13.871Z,99832.47
2022-08-03T07:13:02.392Z,99834.00
2022-08-03T07:15:55.222Z,99835.19
2022-08-03T07:18:44.752Z,99836.19
2022-08-03T07:21:33.202Z,99835.38
2022-08-03T07:24:21.781Z,99830.38
2022-08-03T07:27:11.707Z,99828.50
2022-08-03T07:30:00.380Z,99830.44
2022-08-03T07:32:50.327Z,99838.63
2022-08-03T07:35:39.267Z,99830.41
2022-08-03T07:38:27.720Z,99835.69
2022-08-03T07:41:16.235Z,99828.25
2022-08-03T07:44:06.458Z,99835.69
2022-08-03T07:46:54.958Z,99833.06
2022-08-03T07:49:45.265Z,99835.50
2022-08-03T07:52:49.484Z,99838.47
2022-08-03T07:55:38.180Z,99830.03
2022-08-03T07:58:26.673Z,99827.94
2022-08-03T08:01:17.095Z,99837.53
2022-08-03T08:04:06.044Z,99841.09
2022-08-03T08:06:54.565Z,99833.28
2022-08-03T08:09:43.234Z,99833.13
2022-08-03T08:12:31.743Z,99832.88
2022-08-03T08:15:20.169Z,99832.63
2022-08-03T08:18:09.951Z,99826.91
2022-08-03T08:20:58.431Z,99820.09
2022-08-03T08:23:54.935Z,99814.50
2022-08-03T08:26:46.357Z,99813.09
2022-08-03T08:29:34.978Z,99817.69
2022-08-03T08:32:23.507Z,99825.50
2022-08-03T08:35:13.488Z,99817.72
2022-08-03T08:38:05.639Z,99817.44
2022-08-03T08:40:56.264Z,99814.66
2022-08-03T08:43:44.956Z,99820.50
2022-08-03T08:46:34.204Z,99820.72
2022-08-03T08:49:24.467Z,99816.00
2022-08-03T08:52:24.917Z,99816.41
2022-08-03T08:55:17.121Z,99813.75
2022-08-03T08:58:07.212Z,99810.28
2022-08-03T09:00:55.797Z,99810.28
2022-08-03T09:03:44.542Z,99803.28
2022-08-03T09:06:33.017Z,99800.03
2022-08-03T09:10:10.146Z,99805.56
2022-08-03T09:12:41.935Z,99803.72
2022-08-03T09:15:32.339Z,99796.31
2022-08-03T09:18:32.416Z,99802.91
2022-08-03T09:21:31.704Z,99792.19
2022-08-03T09:24:40.806Z,99797.59
2022-08-03T09:27:30.338Z,99794.44
2022-08-03T09:30:33.732Z,99793.31
2022-08-03T09:33:24.550Z,99795.94
2022-08-03T09:36:42.856Z,99797.97
2022-08-03T09:39:41.371Z,99798.28
2022-08-03T09:42:30.781Z,99793.50
2022-08-03T09:45:27.782Z,99787.44
2022-08-03T09:48:24.068Z,99779.56
2022-08-03T09:51:32.946Z,99778.06
2022-08-03T09:54:28.735Z,99790.66
2022-08-03T09:57:26.006Z,99781.41
2022-08-03T10:00:16.512Z,99778.31
2022-08-03T10:03:05.673Z,99779.28
2022-08-03T10:05:59.332Z,99779.00
2022-08-03T10:08:48.414Z,99777.91
2022-08-03T10:11:41.372Z,99775.78
2022-08-03T10:14:32.552Z,99777.69
2022-08-03T10:17:21.152Z,99773.09
2022-08-03T10:20:11.796Z,99766.97
2022-08-03T10:23:00.304Z,99775.97
2022-08-03T10:25:49.364Z,99768.13
2022-08-03T10:28:45.273Z,99771.66
2022-08-03T10:31:39.527Z,99768.22
2022-08-03T10:34:44.730Z,99760.09
2022-08-03T10:37:35.420Z,99763.31
2022-08-03T10:40:47.665Z,99749.53
2022-08-03T10:43:38.892Z,99750.63
2022-08-03T10:46:27.435Z,99752.84
2022-08-03T10:49:25.533Z,99741.91
2022-08-03T10:52:31.676Z,99745.47
2022-08-03T10:55:50.584Z,99736.03
2022-08-03T10:58:57.643Z,99730.06
2022-08-03T11:01:59.102Z,99734.28
2022-08-03T11:04:50.813Z,99738.94
2022-08-03T11:07:39.333Z,99739.13
2022-08-03T11:10:31.593Z,99735.50
2022-08-03T11:13:22.085Z,99736.69
2022-08-03T11:16:22.343Z,99729.78
2022-08-03T11:19:13.550Z,99727.69
2022-08-03T11:22:03.995Z,99721.97
2022-08-03T11:25:01.763Z,99707.03
2022-08-03T11:27:50.279Z,99704.53
2022-08-03T11:30:38.761Z,99710.41
2022-08-03T11:33:30.928Z,99724.66
2022-08-03T11:36:32.507Z,99718.81
2022-08-03T11:39:22.610Z,99721.88
2022-08-03T11:42:48.485Z,99716.25
2022-08-03T11:45:37.256Z,99709.97
2022-08-03T11:48:28.022Z,99705.63
2022-08-03T11:51:23.827Z,99703.19
2022-08-03T11:54:12.360Z,99696.63
2022-08-03T11:57:02.184Z,99692.06
2022-08-03T11:59:50.715Z,99699.22
2022-08-03T12:02:39.221Z,99695.94
2022-08-03T12:05:51.362Z,99686.84
2022-08-03T12:08:40.712Z,99679.56
2022-08-03T12:11:30.604Z,99671.66
2022-08-03T12:14:49.815Z,99676.78
2022-08-03T12:17:34.784Z,99672.97
2022-08-03T12:20:34.583Z,99679.28
2022-08-03T12:23:23.920Z,99663.75
2022-08-03T12:26:12.430Z,99671.94
2022-08-03T12:29:00.953Z,99665.13
2022-08-03T12:31:50.785Z,99664.31
2022-08-03T12:34:48.691Z,99667.00
2022-08-03T12:37:37.663Z,99670.28
2022-08-03T12:40:28.364Z,99681.75
2022-08-03T12:43:17.052Z,99667.59
2022-08-03T12:46:15.979Z,99666.91
2022-08-03T12:49:11.170Z,99667.53
2022-08-03T12:52:04.079Z,99668.16
2022-08-03T12:54:59.290Z,99675.38
2022-08-03T12:57:47.799Z,99659.66
2022-08-03T13:00:36.353Z,99658.66
2022-08-03T13:03:39.718Z,99657.31
2022-08-03T13:06:32.343Z,99645.28
2022-08-03T13:09:20.848Z,99648.44
2022-08-03T13:12:11.458Z,99645.97
2022-08-03T13:15:00.647Z,99638.63
2022-08-03T13:17:49.163Z,99644.19
2022-08-03T13:20:37.676Z,99646.38
2022-08-03T13:23:27.670Z,99643.38
2022-08-03T13:26:16.144Z,99640.56
2022-08-03T13:29:04.610Z,99639.59
2022-08-03T13:31:53.736Z,99635.66
2022-08-03T13:34:42.231Z,99632.66
2022-08-03T13:37:32.062Z,99632.56
2022-08-03T13:40:23.661Z,99626.81
2022-08-03T13:43:18.500Z,99629.16
2022-08-03T13:46:06.943Z,99635.75
2022-08-03T13:48:55.405Z,99630.69
2022-08-03T13:51:43.960Z,99629.16
2022-08-03T13:54:33.883Z,99620.19
2022-08-03T13:58:03.078Z,99616.28
2022-08-03T14:00:32.264Z,99619.19
2022-08-03T14:03:21.286Z,99616.75
2022-08-03T14:06:09.803Z,99604.53
2022-08-03T14:09:00.639Z,99594.06
2022-08-03T14:12:07.248Z,99599.28
2022-08-03T14:15:01.433Z,99588.63
2022-08-03T14:17:50.344Z,99604.78
2022-08-03T14:20:49.071Z,99596.81
2022-08-03T14:23:40.357Z,99587.38
2022-08-03T14:26:30.384Z,99589.00
2022-08-03T14:29:18.886Z,99584.03
2022-08-03T14:32:11.211Z,99585.75
2022-08-03T14:35:01.329Z,99582.34
2022-08-03T14:37:50.093Z,99579.59
2022-08-03T14:40:38.575Z,99578.06
2022-08-03T14:43:27.285Z,99583.34
2022-08-03T14:46:22.775Z,99581.22
2022-08-03T14:50:35.759Z,99571.88
2022-08-03T14:52:23.521Z,99567.88
2022-08-03T14:55:12.026Z,99577.41
2022-08-03T14:58:05.563Z,99560.78
2022-08-03T15:02:02.579Z,99569.59
2022-08-03T15:04:18.691Z,99580.53
2022-08-03T15:07:07.343Z,99566.56
2022-08-03T15:09:55.815Z,99556.53
2022-08-03T15:12:44.321Z,99562.38
2022-08-03T15:15:32.902Z,99553.09
2022-08-03T15:18:21.375Z,99550.38
2022-08-03T15:21:45.935Z,99538.50
2022-08-03T15:24:19.655Z,99531.44
2022-08-03T15:27:08.248Z,99532.25
2022-08-03T15:30:09.349Z,99522.28
2022-08-03T15:32:58.735Z,99517.06
2022-08-03T15:35:47.679Z,99524.75
2022-08-03T15:38:37.777Z,99523.09
2022-08-03T15:41:26.277Z,99521.88
2022-08-03T15:44:14.772Z,99515.09
2022-08-03T15:47:03.252Z,99518.84
2022-08-03T15:49:51.765Z,99525.63
2022-08-03T15:52:40.315Z,99510.13
2022-08-03T15:55:31.071Z,99502.72
2022-08-03T15:59:03.267Z,99515.28
2022-08-03T16:01:28.256Z,99516.03
2022-08-03T16:04:16.787Z,99501.91
2022-08-03T16:07:05.343Z,99496.94
2022-08-03T16:09:53.867Z,99500.25
2022-08-03T16:12:43.734Z,99492.69
2022-08-03T16:15:32.273Z,99498.22
2022-08-03T16:18:26.996Z,99506.75
2022-08-03T16:21:17.780Z,99506.66
2022-08-03T16:24:09.113Z,99500.78
2022-08-03T16:27:17.407Z,99499.59
2022-08-03T16:30:18.435Z,99495.38
2022-08-03T16:33:07.009Z,99495.03
2022-08-03T16:35:55.606Z,99496.13
2022-08-03T16:38:44.103Z,99498.38
2022-08-03T16:41:53.532Z,99492.19
2022-08-03T16:44:40.998Z,99491.00
2022-08-03T16:47:30.889Z,99487.72
2022-08-03T16:50:20.180Z,99492.84
2022-08-03T16:53:09.728Z,99487.25
2022-08-03T16:55:58.566Z,99495.09
2022-08-03T16:58:48.145Z,99498.94
2022-08-03T17:01:38.916Z,99492.31
2022-08-03T17:04:28.818Z,99490.59
2022-08-03T17:07:17.794Z,99493.38
2022-08-03T17:10:09.708Z,99495.50
2022-08-03T17:12:58.948Z,99495.28
2022-08-03T17:15:57.727Z,99487.84
2022-08-03T17:18:52.345Z,99489.13
2022-08-03T17:21:58.341Z,99493.44
2022-08-03T17:24:47.836Z,99486.78
2022-08-03T17:28:50.422Z,99482.97
2022-08-03T17:31:03.560Z,99480.81
2022-08-03T17:34:11.952Z,99480.38
2022-08-03T17:37:04.564Z,99483.66
2022-08-03T17:39:59.046Z,99489.72
2022-08-03T17:42:50.473Z,99488.91
2022-08-03T17:48:48.463Z,99482.19
2022-08-03T17:51:46.511Z,99488.63
2022-08-03T17:55:57.326Z,99487.66
2022-08-03T17:58:02.076Z,99489.28
2022-08-03T18:02:02.569Z,99497.13
2022-08-03T18:04:21.103Z,99496.66
2022-08-03T18:07:19.398Z,99499.69
2022-08-03T18:10:11.489Z,99494.16
2022-08-03T18:13:10.551Z,99501.03
2022-08-03T18:16:01.625Z,99497.66
2022-08-03T18:18:54.511Z,99502.41
2022-08-03T18:22:02.562Z,99501.91
2022-08-03T18:24:52.393Z,99501.09
2022-08-03T18:27:46.012Z,99508.00
2022-08-03T18:30:53.996Z,99505.63
2022-08-03T18:34:19.272Z,99504.84
2022-08-03T18:36:52.597Z,99507.78
2022-08-03T18:39:49.898Z,99503.84
2022-08-03T18:42:52.757Z,99510.78
2022-08-03T18:45:57.226Z,99511.16
2022-08-03T18:48:49.916Z,99514.56
2022-08-03T18:51:43.355Z,99508.72
2022-08-03T18:54:46.002Z,99507.81
2022-08-03T18:57:51.516Z,99505.47
2022-08-03T19:00:55.068Z,99503.53
2022-08-03T19:03:48.378Z,99511.53
2022-08-03T19:06:40.828Z,99519.38
2022-08-03T19:12:51.610Z,99521.47
2022-08-03T19:18:49.516Z,99522.09
2022-08-03T19:21:38.210Z,99531.66
2022-08-03T19:24:28.237Z,99534.78
2022-08-03T19:27:16.808Z,99528.13
2022-08-03T19:30:19.961Z,99533.75
2022-08-03T19:33:15.851Z,99535.00
2022-08-03T19:36:10.471Z,99546.72
2022-08-03T19:38:59.600Z,99542.69
2022-08-03T19:41:51.560Z,99537.47
2022-08-03T19:44:42.085Z,99542.13
2022-08-03T19:47:36.193Z,99549.44
2022-08-03T19:50:25.185Z,99534.66
2022-08-03T19:53:13.927Z,99533.44
2022-08-03T19:56:04.888Z,99535.00
2022-08-03T19:58:53.708Z,99532.25
2022-08-03T20:01:50.365Z,99538.28
2022-08-03T20:04:40.921Z,99536.41
2022-08-03T20:07:32.232Z,99534.63
2022-08-03T20:10:21.051Z,99534.31
2022-08-03T20:13:09.794Z,99527.09
2022-08-03T20:15:58.257Z,99531.47
2022-08-03T20:18:46.744Z,99527.41
2022-08-03T20:21:36.560Z,99529.88
2022-08-03T20:24:28.042Z,99527.88
2022-08-03T20:27:18.933Z,99521.75
2022-08-03T20:30:08.753Z,99531.78
2022-08-03T20:32:57.236Z,99539.38
2022-08-03T20:35:49.270Z,99533.69
2022-08-03T20:38:43.814Z,99526.41
2022-08-03T20:41:35.883Z,99530.50
2022-08-03T20:44:25.913Z,99523.19
2022-08-03T20:47:14.549Z,99530.31
2022-08-03T20:50:12.933Z,99526.00
2022-08-03T20:53:02.021Z,99526.41
2022-08-03T20:56:02.067Z,99530.03
2022-08-03T20:58:51.261Z,99530.41
2022-08-03T21:01:40.304Z,99526.31
2022-08-03T21:04:32.856Z,99520.16
2022-08-03T21:07:22.837Z,99519.34
2022-08-03T21:10:11.751Z,99520.34
2022-08-03T21:13:04.674Z,99484.84
2022-08-03T21:13:08.888Z,99523.75
2022-08-03T21:13:09.559Z,99520.81
2022-08-03T21:13:18.193Z,99509.91
2022-08-03T21:16:14.725Z,99511.94
2022-08-03T21:19:05.083Z,99515.63
2022-08-03T21:21:53.578Z,99509.28
2022-08-03T21:24:42.102Z,99510.31
2022-08-03T21:27:31.474Z,99514.97
2022-08-03T21:30:22.454Z,99509.03
2022-08-03T21:33:10.907Z,99503.72
2022-08-03T21:36:00.167Z,99501.06
2022-08-03T21:38:56.461Z,99502.88
2022-08-03T21:41:45.396Z,99502.88
2022-08-03T21:44:33.833Z,99504.09
2022-08-03T21:47:24.101Z,99501.66
2022-08-03T21:50:14.120Z,99496.50
2022-08-03T21:53:02.608Z,99494.25
2022-08-03T21:55:55.428Z,99504.22
2022-08-03T21:58:50.975Z,99501.94
2022-08-03T22:01:41.101Z,99495.34
2022-08-03T22:04:50.706Z,99499.41
2022-08-03T22:07:39.466Z,99502.41
2022-08-03T22:10:28.681Z,99500.16
2022-08-03T22:13:42.913Z,99501.34
2022-08-03T22:16:26.892Z,99502.53
2022-08-03T22:19:15.367Z,99505.19
2022-08-03T22:22:07.525Z,99503.72
2022-08-03T22:24:59.602Z,99504.75
2022-08-03T22:27:48.125Z,99501.28
2022-08-03T22:30:37.166Z,99507.56
2022-08-03T22:33:25.724Z,99506.75
2022-08-03T22:36:14.243Z,99501.78
2022-08-03T22:39:06.380Z,99506.47
2022-08-03T22:41:54.891Z,99506.81
2022-08-03T22:44:43.383Z,99501.72
2022-08-03T22:47:31.852Z,99501.25
2022-08-03T22:50:31.539Z,99506.72
2022-08-03T22:53:22.740Z,99504.28
2022-08-03T22:56:12.600Z,99502.63
2022-08-03T22:59:01.056Z,99498.50
2022-08-03T23:02:20.245Z,99508.47
2022-08-03T23:05:59.469Z,99497.25
2022-08-03T23:08:23.819Z,99500.09
2022-08-03T23:11:13.681Z,99506.84
2022-08-03T23:14:02.157Z,99510.31
2022-08-03T23:16:52.453Z,99507.03
2022-08-03T23:19:44.810Z,99506.22
2022-08-03T23:22:33.938Z,99506.22
2022-08-03T23:25:22.544Z,99506.22
2022-08-03T23:28:13.404Z,99505.19
2022-08-03T23:31:01.892Z,99506.84
2022-08-03T23:34:16.634Z,99512.78
2022-08-03T23:37:04.624Z,99505.47
2022-08-03T23:39:53.147Z,99511.22
2022-08-03T23:42:42.070Z,99506.56
2022-08-03T23:45:32.424Z,99502.72
2022-08-03T23:48:20.901Z,99503.00
2022-08-03T23:51:13.969Z,99500.34
2022-08-03T23:54:09.720Z,99501.97
2022-08-03T23:57:03.103Z,99496.03
2022-08-03T23:59:59.928Z,99497.41
